Aviation Digital Data Service (ADDS)

Output produced by METARs form (0055 UTC 19 August 2019)
found at http://www.aviationweather.gov/metar/data/
 
Forecast for: MMPB (PUEBLA , MX)
Text: TAF MMPB 181713Z 1818/1918 16012KT P6SM SCT025
Forecast period: 1800 UTC 18 August 2019 to 0300 UTC 19 August 2019
Forecast type: FROM: standard forecast or significant change
Winds: from the SSE (160 degrees) at 14 MPH (12 knots; 6.2 m/s)
Visibility: 6 or more miles 10+ km)
Ceiling: at least 12,000 feet AGL
Clouds: scattered clouds at 2500 feet AGL
Weather: no significant weather forecast for this period
Text: TEMPO 1823/1903 4SM TSRA BKN020CB
Forecast period: 2300 UTC 18 August 2019 to 0300 UTC 19 August 2019
Forecast type: TEMPORARY: The following changes expected for less than half the time period
Visibility: 4 miles (6 km)
Ceiling: 2000 feet AGL
Clouds: broken clouds at 2000 feet AGL
Weather: TSRA  (rain associated with thunderstorm(s))
Text: FM190300 00000KT P6SM SCT020 BKN080
Forecast period: 0300 to 1800 UTC 19 August 2019
Forecast type: FROM: standard forecast or significant change
Winds: calm
Visibility: 6 or more miles 10+ km)
Ceiling: 8000 feet AGL
Clouds: scattered clouds at 2000 feet AGL
broken clouds at 8000 feet AGL
Weather: no significant weather forecast for this period